Terminal Aerodrome Forecast
Issued by NWS

Home | Current Version | Previous Version | Text Only | Print | Product List | Glossary Off
Versions: 1 2 3 4 5 6 7 8 9 10 11 12 13 14 15 16 17 18 19 20 21 22 23 24 25 26

000
FTUS42 KMHX 250900 AAC
TAFOAJ
TAF AMD
KOAJ 250904Z 2509/2606 20010KT P6SM VCSH OVC100
     FM251200 24010G15KT P6SM OVC080
     FM251600 29010G15KT P6SM SKC
      AMD LTD TO CLD VIS AND WIND=

USA.gov is the U.S. government's official web portal to all federal, state and local government web resources and services.